createdAt,value
2018-12-10T00:01:12.308Z,80.18
2018-12-10T00:03:41.370Z,80.21
2018-12-10T00:06:10.426Z,80.28
2018-12-10T00:08:39.518Z,80.31
2018-12-10T00:11:08.573Z,80.42
2018-12-10T00:13:37.632Z,80.49
2018-12-10T00:16:06.732Z,80.62
2018-12-10T00:18:35.777Z,80.75
2018-12-10T00:21:04.847Z,80.76
2018-12-10T00:23:33.922Z,80.80
2018-12-10T00:26:02.972Z,80.81
2018-12-10T00:28:32.033Z,80.83
2018-12-10T00:31:01.133Z,80.83
2018-12-10T00:33:30.207Z,80.86
2018-12-10T00:35:59.258Z,80.89
2018-12-10T00:38:28.338Z,80.92
2018-12-10T00:40:57.382Z,80.93
2018-12-10T00:43:26.435Z,80.95
2018-12-10T00:45:55.509Z,80.96
2018-12-10T00:48:24.568Z,80.95
2018-12-10T00:50:53.618Z,80.91
2018-12-10T00:53:22.778Z,80.81
2018-12-10T00:55:51.827Z,80.68
2018-12-10T00:58:20.877Z,80.64
2018-12-10T01:00:49.969Z,80.66
2018-12-10T01:03:19.027Z,80.71
2018-12-10T01:05:48.076Z,80.79
2018-12-10T01:08:17.165Z,80.80
2018-12-10T01:10:46.228Z,80.74
2018-12-10T01:13:15.281Z,80.67
2018-12-10T01:15:44.354Z,80.65
2018-12-10T01:18:13.401Z,80.77
2018-12-10T01:20:42.462Z,80.87
2018-12-10T01:23:11.567Z,80.91
2018-12-10T01:25:40.613Z,80.88
2018-12-10T01:28:09.661Z,80.89
2018-12-10T01:30:39.019Z,80.90
2018-12-10T01:33:08.051Z,80.99
2018-12-10T01:35:37.101Z,81.04
2018-12-10T01:38:06.176Z,81.06
2018-12-10T01:40:35.212Z,81.09
2018-12-10T01:43:04.258Z,81.14
2018-12-10T01:45:34.448Z,81.28
2018-12-10T01:48:03.489Z,81.35
2018-12-10T01:50:32.532Z,81.32
2018-12-10T01:53:01.610Z,81.34
2018-12-10T01:55:30.646Z,81.33
2018-12-10T01:57:59.691Z,81.39
2018-12-10T02:00:28.756Z,81.48
2018-12-10T02:02:57.806Z,81.66
2018-12-10T02:05:39.672Z,81.73
2018-12-10T02:08:08.719Z,81.69
2018-12-10T02:10:37.761Z,81.82
2018-12-10T02:13:06.846Z,81.87
2018-12-10T02:15:35.899Z,81.94
2018-12-10T02:18:04.938Z,82.03
2018-12-10T02:20:33.999Z,81.53
2018-12-10T02:23:03.034Z,81.37
2018-12-10T02:25:32.071Z,81.32
2018-12-10T02:28:01.144Z,81.23
2018-12-10T02:30:30.180Z,81.23
2018-12-10T02:32:59.226Z,81.20
2018-12-10T02:35:28.326Z,81.01
2018-12-10T02:37:57.361Z,80.76
2018-12-10T02:40:26.395Z,80.79
2018-12-10T02:42:55.463Z,80.87
2018-12-10T02:45:24.505Z,80.49
2018-12-10T02:47:53.542Z,79.39
2018-12-10T02:50:22.624Z,78.82
2018-12-10T02:52:51.657Z,78.74
2018-12-10T02:55:20.691Z,78.57
2018-12-10T02:57:49.740Z,78.81
2018-12-10T03:00:18.792Z,78.93
2018-12-10T03:02:47.819Z,79.13
2018-12-10T03:05:16.867Z,79.26
2018-12-10T03:07:45.905Z,79.45
2018-12-10T03:10:14.957Z,79.54
2018-12-10T03:12:44.047Z,79.50
2018-12-10T03:15:13.088Z,79.50
2018-12-10T03:17:42.125Z,79.49
2018-12-10T03:20:11.189Z,79.43
2018-12-10T03:22:40.224Z,79.29
2018-12-10T03:25:09.252Z,79.23
2018-12-10T03:27:38.309Z,79.29
2018-12-10T03:30:07.336Z,79.23
2018-12-10T03:32:36.379Z,79.18
2018-12-10T03:35:05.457Z,79.11
2018-12-10T03:37:34.476Z,79.01
2018-12-10T03:40:03.511Z,78.91
2018-12-10T03:42:32.573Z,78.34
2018-12-10T03:45:01.603Z,77.79
2018-12-10T03:47:30.645Z,77.65
2018-12-10T03:49:59.698Z,77.46
2018-12-10T03:52:28.728Z,77.46
2018-12-10T03:54:57.772Z,77.44
2018-12-10T03:57:26.867Z,77.24
2018-12-10T03:59:55.913Z,77.13
2018-12-10T04:02:24.952Z,77.18
2018-12-10T04:04:54.029Z,77.20
2018-12-10T04:07:23.082Z,77.30
2018-12-10T04:09:52.133Z,77.41
2018-12-10T04:12:21.205Z,77.47
2018-12-10T04:14:50.247Z,77.46
2018-12-10T04:17:19.284Z,77.51
2018-12-10T04:19:48.371Z,77.58
2018-12-10T04:22:17.411Z,77.73
2018-12-10T04:24:46.448Z,77.86
2018-12-10T04:27:15.513Z,77.94
2018-12-10T04:29:44.541Z,78.04
2018-12-10T04:32:13.571Z,78.11
2018-12-10T04:34:42.634Z,78.18
2018-12-10T04:37:11.658Z,78.26
2018-12-10T04:39:40.696Z,78.35
2018-12-10T04:42:09.788Z,78.52
2018-12-10T04:44:38.830Z,78.71
2018-12-10T04:47:07.937Z,78.81
2018-12-10T04:49:36.999Z,78.94
2018-12-10T04:52:06.053Z,78.93
2018-12-10T04:54:35.097Z,78.91
2018-12-10T04:57:04.165Z,79.28
2018-12-10T04:59:33.204Z,79.37
2018-12-10T05:02:02.238Z,79.42
2018-12-10T05:04:31.347Z,79.66
2018-12-10T05:07:00.392Z,79.74
2018-12-10T05:09:29.426Z,79.72
2018-12-10T05:11:58.495Z,79.71
2018-12-10T05:14:27.532Z,79.79
2018-12-10T05:16:56.557Z,79.69
2018-12-10T05:19:25.624Z,79.70
2018-12-10T05:21:54.668Z,79.78
2018-12-10T05:24:23.699Z,79.75
2018-12-10T05:26:52.900Z,80.01
2018-12-10T05:29:21.939Z,80.11
2018-12-10T05:31:50.983Z,80.34
2018-12-10T05:34:20.068Z,80.22
2018-12-10T05:36:49.111Z,80.38
2018-12-10T05:39:18.150Z,80.49
2018-12-10T05:41:47.232Z,80.60
2018-12-10T05:44:16.306Z,80.69
2018-12-10T05:46:45.365Z,80.77
2018-12-10T05:49:14.448Z,80.69
2018-12-10T05:51:43.495Z,80.92
2018-12-10T05:54:12.542Z,80.70
2018-12-10T05:56:41.617Z,80.94
2018-12-10T05:59:10.672Z,81.20
2018-12-10T06:01:39.708Z,81.20
2018-12-10T06:04:08.783Z,81.21
2018-12-10T06:06:37.827Z,81.40
2018-12-10T06:09:06.884Z,81.20
2018-12-10T06:11:35.988Z,81.60
2018-12-10T06:14:05.038Z,81.71
2018-12-10T06:16:34.080Z,82.06
2018-12-10T06:19:03.149Z,81.96
2018-12-10T06:21:32.189Z,82.05
2018-12-10T06:24:01.232Z,82.18
2018-12-10T06:26:30.304Z,82.26
2018-12-10T06:28:59.346Z,82.16
2018-12-10T06:31:28.386Z,82.23
2018-12-10T06:33:57.472Z,82.01
2018-12-10T06:36:26.511Z,82.02
2018-12-10T06:38:55.554Z,81.89
2018-12-10T06:41:24.633Z,81.70
2018-12-10T06:43:53.679Z,81.68
2018-12-10T06:46:22.721Z,81.69
2018-12-10T06:48:51.810Z,81.61
2018-12-10T06:51:20.860Z,81.63
2018-12-10T06:53:49.917Z,81.76
2018-12-10T06:56:19.010Z,81.82
2018-12-10T06:58:48.059Z,81.68
2018-12-10T07:01:17.104Z,81.69
2018-12-10T07:03:46.179Z,81.70
2018-12-10T07:06:15.232Z,81.88
2018-12-10T07:08:44.294Z,81.84
2018-12-10T07:11:13.370Z,81.69
2018-12-10T07:13:42.428Z,81.75
2018-12-10T07:16:12.505Z,81.82
2018-12-10T07:18:41.592Z,82.09
2018-12-10T07:21:10.648Z,82.00
2018-12-10T07:23:39.723Z,82.12
2018-12-10T07:26:08.809Z,82.18
2018-12-10T07:28:38.052Z,82.48
2018-12-10T07:31:06.912Z,82.29
2018-12-10T07:33:36.062Z,82.24
2018-12-10T07:36:05.104Z,82.04
2018-12-10T07:38:34.146Z,82.06
2018-12-10T07:41:03.236Z,82.01
2018-12-10T07:43:32.285Z,81.82
2018-12-10T07:46:01.336Z,81.66
2018-12-10T07:48:30.409Z,81.62
2018-12-10T07:50:59.465Z,81.50
2018-12-10T07:53:28.529Z,81.37
2018-12-10T07:55:57.603Z,81.29
2018-12-10T07:58:26.655Z,81.17
2018-12-10T08:00:55.705Z,81.10
2018-12-10T08:03:24.802Z,81.03
2018-12-10T08:05:53.850Z,80.96
2018-12-10T08:08:22.886Z,80.93
2018-12-10T08:10:51.959Z,80.97
2018-12-10T08:13:21.009Z,80.81
2018-12-10T08:15:50.054Z,80.44
2018-12-10T08:18:19.137Z,80.03
2018-12-10T08:20:48.187Z,79.52
2018-12-10T08:23:17.255Z,79.29
2018-12-10T08:26:05.119Z,79.26
2018-12-10T08:28:34.161Z,79.17
2018-12-10T08:31:03.579Z,79.20
2018-12-10T08:33:32.308Z,79.21
2018-12-10T08:36:01.356Z,79.31
2018-12-10T08:38:30.417Z,79.19
2018-12-10T08:40:59.481Z,79.11
2018-12-10T08:43:28.526Z,78.94
2018-12-10T08:45:57.574Z,78.66
2018-12-10T08:48:26.783Z,78.41
2018-12-10T08:50:55.837Z,78.37
2018-12-10T08:53:24.888Z,78.30
2018-12-10T08:55:53.955Z,78.45
2018-12-10T08:58:23.009Z,78.52
2018-12-10T09:00:52.091Z,78.48
2018-12-10T09:03:21.163Z,78.47
2018-12-10T09:05:50.213Z,78.37
2018-12-10T09:08:19.308Z,78.40
2018-12-10T09:10:48.424Z,78.37
2018-12-10T09:13:17.466Z,78.55
2018-12-10T09:15:46.513Z,78.48
2018-12-10T09:18:15.575Z,78.41
2018-12-10T09:20:44.623Z,78.46
2018-12-10T09:23:13.665Z,78.43
2018-12-10T09:25:42.745Z,78.28
2018-12-10T09:28:19.311Z,77.99
2018-12-10T09:30:40.816Z,77.59
2018-12-10T09:33:09.907Z,77.43
2018-12-10T09:35:38.944Z,77.30
2018-12-10T09:38:07.996Z,77.26
2018-12-10T09:40:37.069Z,77.06
2018-12-10T09:43:06.107Z,76.90
2018-12-10T09:45:35.145Z,76.83
2018-12-10T09:48:04.218Z,76.65
2018-12-10T09:50:33.267Z,76.55
2018-12-10T09:53:02.325Z,76.18
2018-12-10T09:55:43.771Z,75.76
2018-12-10T09:58:12.810Z,75.40
2018-12-10T10:00:41.856Z,75.00
2018-12-10T10:03:10.948Z,75.31
2018-12-10T10:05:39.981Z,74.72
2018-12-10T10:08:09.028Z,72.96
2018-12-10T10:10:38.108Z,72.59
2018-12-10T10:13:07.156Z,72.95
2018-12-10T10:15:36.207Z,72.78
2018-12-10T10:18:05.309Z,72.65
2018-12-10T10:20:34.355Z,73.24
2018-12-10T10:23:03.415Z,73.35
2018-12-10T10:25:47.232Z,73.54
2018-12-10T10:28:16.173Z,74.25
2018-12-10T10:30:45.211Z,74.91
2018-12-10T10:33:14.325Z,75.29
2018-12-10T10:35:43.365Z,75.63
2018-12-10T10:38:12.412Z,76.04
2018-12-10T10:40:41.506Z,76.44
2018-12-10T10:43:10.557Z,76.73
2018-12-10T10:45:42.763Z,76.80
2018-12-10T10:48:11.828Z,76.89
2018-12-10T10:50:40.870Z,76.99
2018-12-10T10:53:09.971Z,77.11
2018-12-10T10:55:39.014Z,77.29
2018-12-10T10:58:08.153Z,77.34
2018-12-10T11:00:42.742Z,77.39
2018-12-10T11:03:17.429Z,77.14
2018-12-10T11:05:51.423Z,76.79
2018-12-10T11:08:20.461Z,76.47
2018-12-10T11:10:49.503Z,76.11
2018-12-10T11:13:18.605Z,75.74
2018-12-10T11:15:47.637Z,75.69
2018-12-10T11:18:16.688Z,75.61
2018-12-10T11:20:45.754Z,75.64
2018-12-10T11:23:14.800Z,75.16
2018-12-10T11:25:43.852Z,74.86
2018-12-10T11:28:12.930Z,74.92
2018-12-10T11:30:41.987Z,74.92
2018-12-10T11:33:11.026Z,74.87
2018-12-10T11:35:40.153Z,74.49
2018-12-10T11:38:09.212Z,74.50
2018-12-10T11:40:38.253Z,74.07
2018-12-10T11:43:07.327Z,74.00
2018-12-10T11:45:36.375Z,74.25
2018-12-10T11:48:05.421Z,74.03
2018-12-10T11:50:34.497Z,73.88
2018-12-10T11:53:03.544Z,73.84
2018-12-10T11:55:32.599Z,73.54
2018-12-10T11:58:01.716Z,73.59
2018-12-10T12:00:30.777Z,73.54
2018-12-10T12:02:59.832Z,73.53
2018-12-10T12:05:32.670Z,73.47
2018-12-10T12:08:01.734Z,73.50
2018-12-10T12:10:30.800Z,73.55
2018-12-10T12:13:00.144Z,73.68
2018-12-10T12:15:29.183Z,73.78
2018-12-10T12:17:58.289Z,73.76
2018-12-10T12:20:27.461Z,73.64
2018-12-10T12:22:56.511Z,73.54
2018-12-10T12:25:25.552Z,73.73
2018-12-10T12:27:54.628Z,73.75
2018-12-10T12:30:23.677Z,73.85
2018-12-10T12:32:52.726Z,73.75
2018-12-10T12:35:21.806Z,73.60
2018-12-10T12:37:50.858Z,73.44
2018-12-10T12:40:19.920Z,73.42
2018-12-10T12:42:49.015Z,73.51
2018-12-10T12:45:18.063Z,73.52
2018-12-10T12:47:47.121Z,73.33
2018-12-10T12:50:16.204Z,73.46
2018-12-10T12:52:45.254Z,73.53
2018-12-10T12:55:14.299Z,72.97
2018-12-10T12:57:43.373Z,72.48
2018-12-10T13:00:12.430Z,72.21
2018-12-10T13:02:41.472Z,72.32
2018-12-10T13:05:10.570Z,72.26
2018-12-10T13:07:39.628Z,72.48
2018-12-10T13:10:08.677Z,72.47
2018-12-10T13:12:37.740Z,72.63
2018-12-10T13:15:06.785Z,72.82
2018-12-10T13:17:35.844Z,72.91
2018-12-10T13:20:04.913Z,73.11
2018-12-10T13:22:33.961Z,73.34
2018-12-10T13:25:03.025Z,73.61
2018-12-10T13:27:32.129Z,73.85
2018-12-10T13:30:01.190Z,73.96
2018-12-10T13:32:30.245Z,74.13
2018-12-10T13:34:59.338Z,74.40
2018-12-10T13:37:28.396Z,74.56
2018-12-10T13:39:57.448Z,74.71
2018-12-10T13:42:26.542Z,74.82
2018-12-10T13:44:55.604Z,74.98
2018-12-10T13:47:24.657Z,75.11
2018-12-10T13:49:53.751Z,75.21
2018-12-10T13:52:22.811Z,75.31
2018-12-10T13:54:51.873Z,75.46
2018-12-10T13:57:20.953Z,75.54
2018-12-10T13:59:50.005Z,75.70
2018-12-10T14:02:19.060Z,75.83
2018-12-10T14:04:48.152Z,75.96
2018-12-10T14:07:17.238Z,76.12
2018-12-10T14:09:46.264Z,76.22
2018-12-10T14:12:15.387Z,76.34
2018-12-10T14:14:44.447Z,76.53
2018-12-10T14:17:13.506Z,76.58
2018-12-10T14:19:42.601Z,76.72
2018-12-10T14:22:11.669Z,76.81
2018-12-10T14:24:40.728Z,77.05
2018-12-10T14:27:09.813Z,77.17
2018-12-10T14:29:38.873Z,77.17
2018-12-10T14:32:07.952Z,77.09
2018-12-10T14:34:37.071Z,77.17
2018-12-10T14:37:06.120Z,77.33
2018-12-10T14:39:35.194Z,77.50
2018-12-10T14:42:04.282Z,77.59
2018-12-10T14:44:33.345Z,77.71
2018-12-10T14:47:02.401Z,77.74
2018-12-10T14:49:31.489Z,77.69
2018-12-10T14:52:00.541Z,77.72
2018-12-10T14:54:29.612Z,77.73
2018-12-10T14:56:58.738Z,77.80
2018-12-10T14:59:27.794Z,77.99
2018-12-10T15:01:56.856Z,77.94
2018-12-10T15:04:25.937Z,78.15
2018-12-10T15:06:55.035Z,78.35
2018-12-10T15:09:24.048Z,78.30
2018-12-10T15:11:53.126Z,78.46
2018-12-10T15:14:22.180Z,78.38
2018-12-10T15:16:51.248Z,78.49
2018-12-10T15:19:20.784Z,78.46
2018-12-10T15:21:49.848Z,78.42
2018-12-10T15:24:18.892Z,78.47
2018-12-10T15:26:47.977Z,78.68
2018-12-10T15:29:17.031Z,78.72
2018-12-10T15:31:46.101Z,78.65
2018-12-10T15:34:15.191Z,78.47
2018-12-10T15:36:44.255Z,78.39
2018-12-10T15:39:13.311Z,78.30
2018-12-10T15:41:42.412Z,78.24
2018-12-10T15:44:11.473Z,78.15
2018-12-10T15:46:40.528Z,78.13
2018-12-10T15:49:09.628Z,78.15
2018-12-10T15:51:38.688Z,78.18
2018-12-10T15:54:07.739Z,78.23
2018-12-10T15:56:36.844Z,78.25
2018-12-10T15:59:05.897Z,78.16
2018-12-10T16:01:34.961Z,78.17
2018-12-10T16:04:04.798Z,78.12
2018-12-10T16:06:35.776Z,78.04
2018-12-10T16:09:04.871Z,78.08
2018-12-10T16:11:36.590Z,77.99
2018-12-10T16:14:06.801Z,77.98
2018-12-10T16:16:35.542Z,78.01
2018-12-10T16:19:04.754Z,78.07
2018-12-10T16:21:33.905Z,78.09
2018-12-10T16:24:03.092Z,78.27
2018-12-10T16:26:32.305Z,78.23
2018-12-10T16:29:01.363Z,78.14
2018-12-10T16:31:30.519Z,78.27
2018-12-10T16:34:00.007Z,78.26
2018-12-10T16:36:29.329Z,78.33
2018-12-10T16:39:02.455Z,78.30
2018-12-10T16:41:32.435Z,78.18
2018-12-10T16:44:02.875Z,78.23
2018-12-10T16:46:34.021Z,78.40
2018-12-10T16:49:03.042Z,78.40
2018-12-10T16:51:32.113Z,78.34
2018-12-10T16:54:01.187Z,78.40
2018-12-10T16:56:30.247Z,78.34
2018-12-10T16:58:59.322Z,78.39
2018-12-10T17:01:28.715Z,78.70
2018-12-10T17:03:57.776Z,78.70
2018-12-10T17:06:26.856Z,78.66
2018-12-10T17:08:56.101Z,78.64
2018-12-10T17:11:25.335Z,78.59
2018-12-10T17:13:54.390Z,78.50
2018-12-10T17:16:23.478Z,78.55
2018-12-10T17:18:52.544Z,78.55
2018-12-10T17:21:21.602Z,78.58
2018-12-10T17:23:50.699Z,78.63
2018-12-10T17:26:19.759Z,78.66
2018-12-10T17:28:48.817Z,78.62
2018-12-10T17:31:17.969Z,78.63
2018-12-10T17:33:47.013Z,78.78
2018-12-10T17:39:17.417Z,78.84
2018-12-10T17:41:46.512Z,78.99
2018-12-10T17:44:15.615Z,79.13
2018-12-10T17:46:44.621Z,79.08
2018-12-10T17:49:13.754Z,79.08
2018-12-10T17:51:42.812Z,79.07
2018-12-10T17:54:11.871Z,79.00
2018-12-10T17:56:40.966Z,79.02
2018-12-10T17:59:10.012Z,79.07
2018-12-10T18:01:39.062Z,79.02
2018-12-10T18:04:08.171Z,79.07
2018-12-10T18:06:37.278Z,79.18
2018-12-10T18:09:06.343Z,79.17
2018-12-10T18:11:35.457Z,79.28
2018-12-10T18:14:04.509Z,79.20
2018-12-10T18:16:33.563Z,79.28
2018-12-10T18:19:02.671Z,79.23
2018-12-10T18:21:31.725Z,79.30
2018-12-10T18:24:00.785Z,79.21
2018-12-10T18:26:29.866Z,79.21
2018-12-10T18:28:58.938Z,79.15
2018-12-10T18:31:27.989Z,79.09
2018-12-10T18:33:57.095Z,79.05
2018-12-10T18:36:26.153Z,78.97
2018-12-10T18:38:55.201Z,78.93
2018-12-10T18:41:24.280Z,78.92
2018-12-10T18:43:53.325Z,78.89
2018-12-10T18:46:22.388Z,78.87
2018-12-10T18:48:51.476Z,78.99
2018-12-10T18:51:20.532Z,78.94
2018-12-10T18:53:49.678Z,78.87
2018-12-10T18:56:31.728Z,78.83
2018-12-10T18:59:00.792Z,78.82
2018-12-10T19:01:29.869Z,78.96
2018-12-10T19:03:58.959Z,78.96
2018-12-10T19:06:28.024Z,78.98
2018-12-10T19:08:57.083Z,78.95
2018-12-10T19:11:26.196Z,79.03
2018-12-10T19:13:55.616Z,78.99
2018-12-10T19:16:24.721Z,78.95
2018-12-10T19:19:13.011Z,78.92
2018-12-10T19:24:33.106Z,79.01
2018-12-10T19:27:02.198Z,79.04
2018-12-10T19:29:31.282Z,79.10
2018-12-10T19:32:00.462Z,79.23
2018-12-10T19:34:29.556Z,79.22
2018-12-10T19:36:58.630Z,79.14
2018-12-10T19:39:27.785Z,79.06
2018-12-10T19:41:56.840Z,79.05
2018-12-10T19:44:25.911Z,79.17
2018-12-10T19:46:55.002Z,79.17
2018-12-10T19:49:24.053Z,79.16
2018-12-10T19:51:53.116Z,79.24
2018-12-10T19:54:22.204Z,79.19
2018-12-10T19:56:51.312Z,79.23
2018-12-10T19:59:20.375Z,79.25
2018-12-10T20:01:49.498Z,79.18
2018-12-10T20:04:18.558Z,79.12
2018-12-10T20:06:53.117Z,79.09
2018-12-10T20:09:22.181Z,79.11
2018-12-10T20:11:51.252Z,79.16
2018-12-10T20:14:20.330Z,79.21
2018-12-10T20:16:49.381Z,79.21
2018-12-10T20:19:18.434Z,79.24
2018-12-10T20:21:47.575Z,79.19
2018-12-10T20:24:16.647Z,79.13
2018-12-10T20:26:45.709Z,79.21
2018-12-10T20:29:14.798Z,79.17
2018-12-10T20:31:43.879Z,79.16
2018-12-10T20:34:12.915Z,79.28
2018-12-10T20:36:42.059Z,79.21
2018-12-10T20:39:11.092Z,79.20
2018-12-10T20:41:40.162Z,79.37
2018-12-10T20:44:09.292Z,79.36
2018-12-10T20:46:38.336Z,79.44
2018-12-10T20:49:07.378Z,79.57
2018-12-10T20:51:36.451Z,79.54
2018-12-10T20:54:05.497Z,79.51
2018-12-10T20:56:34.530Z,79.47
2018-12-10T20:59:03.609Z,79.43
2018-12-10T21:01:32.662Z,79.42
2018-12-10T21:04:01.711Z,79.38
2018-12-10T21:06:34.895Z,79.38
2018-12-10T21:09:03.933Z,79.31
2018-12-10T21:11:32.971Z,79.24
2018-12-10T21:14:02.051Z,79.18
2018-12-10T21:16:31.098Z,79.17
2018-12-10T21:19:00.153Z,79.13
2018-12-10T21:21:29.228Z,79.11
2018-12-10T21:23:58.292Z,79.04
2018-12-10T21:26:27.352Z,79.09
2018-12-10T21:28:56.531Z,79.02
2018-12-10T21:31:25.598Z,79.23
2018-12-10T21:33:54.641Z,79.26
2018-12-10T21:36:23.737Z,79.20
2018-12-10T21:38:52.802Z,79.20
2018-12-10T21:41:21.851Z,79.13
2018-12-10T21:43:50.928Z,79.16
2018-12-10T21:46:20.955Z,79.07
2018-12-10T21:48:50.021Z,79.00
2018-12-10T21:51:19.189Z,78.91
2018-12-10T21:53:48.243Z,78.83
2018-12-10T21:56:17.336Z,78.80
2018-12-10T21:58:46.414Z,78.78
2018-12-10T22:01:15.460Z,78.71
2018-12-10T22:03:44.518Z,78.68
2018-12-10T22:06:13.586Z,78.60
2018-12-10T22:08:42.629Z,78.53
2018-12-10T22:11:11.685Z,78.49
2018-12-10T22:13:40.779Z,78.54
2018-12-10T22:16:09.826Z,78.48
2018-12-10T22:18:38.887Z,78.50
2018-12-10T22:21:08.046Z,78.47
2018-12-10T22:23:37.123Z,78.47
2018-12-10T22:26:06.171Z,78.56
2018-12-10T22:28:35.244Z,78.53
2018-12-10T22:31:04.309Z,78.60
2018-12-10T22:33:33.355Z,78.54
2018-12-10T22:36:02.495Z,78.51
2018-12-10T22:38:31.548Z,78.45
2018-12-10T22:41:00.600Z,78.39
2018-12-10T22:43:29.677Z,78.31
2018-12-10T22:46:15.227Z,78.30
2018-12-10T22:48:44.294Z,78.27
2018-12-10T22:51:13.345Z,78.30
2018-12-10T22:53:42.412Z,78.24
2018-12-10T22:56:11.595Z,78.19
2018-12-10T22:58:40.649Z,78.13
2018-12-10T23:01:09.707Z,78.13
2018-12-10T23:03:38.802Z,78.10
2018-12-10T23:06:07.852Z,78.07
2018-12-10T23:08:36.896Z,78.09
2018-12-10T23:11:05.974Z,78.09
2018-12-10T23:13:35.032Z,78.18
2018-12-10T23:16:04.093Z,78.29
2018-12-10T23:18:33.197Z,78.34
2018-12-10T23:21:02.231Z,78.44
2018-12-10T23:23:31.279Z,78.47
2018-12-10T23:26:00.360Z,78.55
2018-12-10T23:28:29.417Z,78.69
2018-12-10T23:30:58.462Z,78.73
2018-12-10T23:33:27.546Z,78.72
2018-12-10T23:35:56.588Z,78.78
2018-12-10T23:38:25.641Z,78.72
2018-12-10T23:40:54.756Z,78.68
2018-12-10T23:43:24.785Z,78.54
2018-12-10T23:46:14.331Z,78.52
2018-12-10T23:48:43.383Z,78.55
2018-12-10T23:51:12.444Z,78.50
2018-12-10T23:53:41.513Z,78.51
2018-12-10T23:56:10.564Z,78.66
2018-12-10T23:58:39.617Z,78.62
